Home > Products > Valid Products > TAF

000
FTUS43 KBIS 012000 AAA
TAFMOT
TAF AMD
KMOT 012039Z 0121/0218 09007KT P6SM SCT120 BKN150
     FM020000 09005KT P6SM SCT120
     FM020200 13005KT P6SM FEW300
     FM020900 19004KT P6SM VCSH SCT080 BKN100
     FM021500 35003KT P6SM SCT090 BKN180=



000
FTUS43 KBIS 012000 AAA
TAFDIK
TAF AMD
KDIK 012039Z 0121/0218 09011KT P6SM SKC
     FM012200 08009KT P6SM VCSH SCT100 BKN120
     FM020400 07004KT P6SM FEW130 SCT250=



000
FTUS43 KBIS 012000 AAA
TAFISN
TAF AMD
KISN 012038Z 0121/0218 10008KT P6SM FEW250
     FM020200 08004KT P6SM SCT060 BKN150
     FM020500 VRB03KT P6SM VCSH BKN050 OVC120
     FM021200 04004KT P6SM SCT090=



000
FTUS43 KBIS 012000 AAA
TAFBIS
TAF AMD
KBIS 012038Z 0121/0218 16008KT P6SM SCT150
     FM012100 14007KT P6SM VCSH FEW070 BKN140
     FM020200 09006KT P6SM VCSH SCT080 SCT130
     FM020500 10005KT P6SM FEW100 SCT250
     FM021400 13003KT P6SM SCT110 SCT180=



000
FTUS43 KBIS 011700
TAFMOT
TAF
KMOT 011736Z 0118/0218 08007KT P6SM SCT250
     FM011845 09007KT P6SM SCT100 BKN120
     FM012230 09005KT P6SM SCT120
     FM020200 13005KT P6SM FEW300
     FM020900 19004KT P6SM VCSH SCT080 BKN100
     FM021500 35003KT P6SM SCT090 BKN180=



000
FTUS43 KBIS 011700
TAFJMS
TAF
KJMS 011736Z 0118/0218 06006KT P6SM FEW045 SCT060
     FM012300 09005KT P6SM SCT050
     FM020200 11006KT P6SM SCT070 SCT100
     FM021400 12004KT P6SM SCT090 BKN100=



000
FTUS43 KBIS 011700
TAFISN
TAF
KISN 011736Z 0118/0218 10011KT P6SM VCTS SCT060CB BKN120
     FM012000 09008KT P6SM FEW250
     FM020200 08004KT P6SM SCT060 BKN150
     FM020500 VRB03KT P6SM VCSH BKN050 OVC120
     FM021200 04004KT P6SM SCT090=



000
FTUS43 KBIS 011700
TAFDIK
TAF
KDIK 011736Z 0118/0218 08009KT P6SM VCSH SCT070 SCT110 BKN150
     FM011900 09008KT P6SM SKC
     FM012130 08009KT P6SM VCSH SCT100 BKN120
     FM020400 07004KT P6SM FEW130 SCT250=



000
FTUS43 KBIS 011700
TAFBIS
TAF
KBIS 011736Z 0118/0218 14008KT P6SM SKC
     FM012030 11007KT P6SM VCSH FEW070 BKN140
     FM020200 09006KT P6SM VCSH SCT080 SCT130
     FM020500 10005KT P6SM FEW100 SCT250
     FM021400 13003KT P6SM SCT110 SCT180=



000
FTUS43 KBIS 011500 AAB
TAFISN
TAF AMD
KISN 011506Z 0115/0212 01011KT P6SM VCTS SCT070CB BKN150
      TEMPO 0115/0116 -TSRA BKN060CB
     FM011800 09010KT P6SM SCT070 SCT150
     FM020200 09004KT P6SM SCT070 BKN150 OVC250
     FM020600 05006KT P6SM SCT050 BKN120 OVC150=



000
FTUS43 KBIS 011400 AAA
TAFISN
TAF AMD
KISN 011419Z 0114/0212 01008KT P6SM VCTS SCT070CB BKN150
      TEMPO 0114/0115 -TSRA BKN060CB
     FM011800 09010KT P6SM SCT070 SCT150
     FM020200 09004KT P6SM SCT070 BKN150 OVC250
     FM020600 05006KT P6SM SCT050 BKN120 OVC150=



000
FTUS43 KBIS 011100
TAFJMS
TAF
KJMS 011130Z 0112/0212 VRB03KT P6SM SKC
     FM011800 09006KT P6SM SCT060 SCT080
     FM020200 12006KT P6SM SCT070 SCT100=



000
FTUS43 KBIS 011100
TAFBIS
TAF
KBIS 011130Z 0112/0212 06005KT P6SM SCT090
     FM011600 11010KT P6SM SCT060
     FM020200 09006KT P6SM SCT080=



000
FTUS43 KBIS 011100
TAFMOT
TAF
KMOT 011130Z 0112/0212 06004KT P6SM SKC
     FM011800 08008KT P6SM SCT050
     FM020200 10006KT P6SM FEW080=



000
FTUS43 KBIS 011100
TAFISN
TAF
KISN 011130Z 0112/0212 05006KT P6SM VCTS SCT070CB BKN150
     FM011800 09010KT P6SM SCT070 SCT150
     FM020200 09004KT P6SM SCT070 BKN150 OVC250
     FM020600 05006KT P6SM SCT050 BKN120 OVC150=



000
FTUS43 KBIS 011100
TAFDIK
TAF
KDIK 011130Z 0112/0212 15008KT P6SM SCT120
     FM011400 11010KT P6SM SCT070 BKN150
     FM012100 09009KT P6SM SCT070 SCT150
     FM020600 05005KT P6SM SCT070 SCT100=



000
FTUS43 KBIS 010500
TAFISN
TAF
KISN 010535Z 0106/0206 08007KT P6SM SCT150 SCT250
     FM011000 05006KT P6SM SCT070 BKN150 OVC250
     FM011800 09010KT P6SM SCT070 SCT150=



000
FTUS43 KBIS 010500
TAFMOT
TAF
KMOT 010535Z 0106/0206 06004KT P6SM SKC
     FM011800 08008KT P6SM SCT050
     FM020200 10006KT P6SM FEW080=



000
FTUS43 KBIS 010500
TAFDIK
TAF
KDIK 010535Z 0106/0206 13008KT P6SM SCT120 SCT250
     FM011400 11010KT P6SM SCT070 BKN150 OVC250
     FM012100 09009KT P6SM SCT070 SCT150=



000
FTUS43 KBIS 010500
TAFBIS
TAF
KBIS 010535Z 0106/0206 VRB03KT P6SM SKC
     FM011600 11010KT P6SM SCT060
     FM020200 09006KT P6SM SCT080=



000
FTUS43 KBIS 010500
TAFJMS
TAF
KJMS 010535Z 0106/0206 VRB03KT P6SM SKC
     FM011800 09006KT P6SM SCT060 SCT080
     FM020200 12006KT P6SM SCT070 SCT100=



000
FTUS43 KBIS 312300
TAFJMS
TAF
KJMS 312336Z 0100/0124 VRB03KT P6SM FEW250
     FM011900 08007KT P6SM SCT250=



000
FTUS43 KBIS 312300
TAFDIK
TAF
KDIK 312336Z 0100/0124 13008KT P6SM SCT120
     FM011900 09009KT P6SM SCT250=



000
FTUS43 KBIS 312300
TAFMOT
TAF
KMOT 312336Z 0100/0124 15005KT P6SM FEW110
     FM010200 08004KT P6SM FEW110
     FM010800 00000KT P6SM FEW100
     FM011800 07006KT P6SM SCT250=



000
FTUS43 KBIS 312300
TAFBIS
TAF
KBIS 312336Z 0100/0124 VRB03KT P6SM SCT110
     FM011600 09007KT P6SM SCT250=



000
FTUS43 KBIS 312300
TAFISN
TAF
KISN 312336Z 0100/0124 10008KT P6SM SCT150
     FM010500 05004KT P6SM FEW250
     FM011800 09008KT P6SM SCT250=



000
FTUS43 KBIS 311700
TAFMOT
TAF
KMOT 311720Z 3118/0118 VRB05KT P6SM SCT060 BKN100
     FM010200 VRB05KT P6SM SCT100=



000
FTUS43 KBIS 311700
TAFBIS
TAF
KBIS 311720Z 3118/0118 VRB05KT P6SM BKN100=



000
FTUS43 KBIS 311700
TAFDIK
TAF
KDIK 311720Z 3118/0118 VRB05KT P6SM BKN100
     FM011200 11009KT P6SM SKC=



000
FTUS43 KBIS 311700
TAFJMS
TAF
KJMS 311720Z 3118/0118 VRB05KT P6SM SCT050
     FM010200 VRB05KT P6SM BKN050=



000
FTUS43 KBIS 311700
TAFISN
TAF
KISN 311720Z 3118/0118 14008KT P6SM SCT100
     FM010900 09008KT P6SM SCT050=



000
FTUS43 KBIS 311400 AAA
TAFJMS
TAF AMD
KJMS 311410Z 3114/0112 34005KT P6SM SCT050
     FM010200 VRB04KT P6SM BKN050=



000
FTUS43 KBIS 311100
TAFDIK
TAF
KDIK 311129Z 3112/0112 19005KT P6SM VCSH BKN100
     FM312200 13010KT P6SM SCT100
     FM010900 12009KT P6SM SKC=



000
FTUS43 KBIS 311100
TAFISN
TAF
KISN 311129Z 3112/0112 10007KT P6SM -SHRA VCTS SCT080 BKN100CB
     FM311500 14007KT P6SM VCSH BKN110
     FM311900 15007KT P6SM SCT110
     FM010200 09009KT P6SM SCT100=



000
FTUS43 KBIS 311100
TAFMOT
TAF
KMOT 311129Z 3112/0112 24003KT P6SM SCT120
     FM311800 10006KT P6SM SCT060 SCT100
     FM010200 08006KT P6SM SCT100=



000
FTUS43 KBIS 311100
TAFJMS
TAF
KJMS 311129Z 3112/0112 33004KT P6SM VCFG SCT050
     FM311500 34005KT P6SM SCT050
     FM010200 VRB04KT P6SM BKN050=



000
FTUS43 KBIS 311100
TAFBIS
TAF
KBIS 311129Z 3112/0112 06004KT P6SM SCT150
     FM311800 02005KT P6SM SCT070 BKN100
     FM010200 09005KT P6SM SCT100
     FM010600 07004KT P6SM VCSH SCT080 BKN100=



000
FTUS43 KBIS 311000 AAA
TAFISN
TAF AMD
KISN 311027Z 3110/0106 02005KT P6SM -SHRA VCTS SCT080 OVC100CB
     FM311200 14007KT P6SM VCSH BKN100
     FM311600 15009KT P6SM SCT100
     FM010100 09009KT P6SM SKC=



000
FTUS43 KBIS 310700 AAB
TAFDIK
TAF AMD
KDIK 310748Z 3108/0106 16004KT P6SM VCSH BKN100
     FM311300 20005KT P6SM BKN100
     FM311900 14007KT P6SM SCT100=



000
FTUS43 KBIS 310600 AAA
TAFDIK
TAF AMD
KDIK 310614Z 3106/0106 14003KT P6SM SCT090
     FM310730 16004KT P6SM -TSRA BKN100CB
     FM311300 20005KT P6SM BKN100
     FM311900 14007KT P6SM SCT100=



000
FTUS43 KBIS 310500
TAFJMS
TAF
KJMS 310533Z 3106/0106 30003KT P6SM SKC
     FM310900 32003KT P6SM VCFG SKC
     FM311300 32004KT P6SM SCT050
     FM311800 35006KT P6SM SCT060
     FM010200 06004KT P6SM BKN060=



000
FTUS43 KBIS 310500
TAFMOT
TAF
KMOT 310533Z 3106/0106 22003KT P6SM SKC
     FM311000 VRB03KT P6SM SCT070 BKN100
     FM311700 14004KT P6SM SCT060 SCT100
     FM312200 05006KT P6SM SCT070=



000
FTUS43 KBIS 310500
TAFDIK
TAF
KDIK 310533Z 3106/0106 14003KT P6SM SKC
     FM310900 16004KT P6SM VCSH SCT090 BKN110
     FM311100 17004KT P6SM -SHRA VCTS BKN100CB
     FM311400 20005KT P6SM BKN100
     FM311900 14007KT P6SM SCT100=



000
FTUS43 KBIS 310500
TAFBIS
TAF
KBIS 310533Z 3106/0106 06004KT P6SM SCT060
     FM311300 14004KT P6SM BKN060 BKN100
     FM311800 02005KT P6SM SCT060
     FM010200 10005KT P6SM SCT100=



000
FTUS43 KBIS 310500
TAFISN
TAF
KISN 310533Z 3106/0106 10007KT P6SM -TSRA SCT080 OVC100CB
     FM311200 14007KT P6SM VCSH BKN100
     FM311600 15009KT P6SM SCT100
     FM010100 09009KT P6SM SKC=



000
FTUS43 KBIS 310400 AAA
TAFISN
TAF AMD
KISN 310421Z 3104/3124 11006KT P6SM BKN110
     FM310600 10007KT P6SM -TSRA SCT080 OVC100CB
     FM311200 14007KT P6SM VCSH BKN100
     FM311600 15009KT P6SM SCT100=



000
FTUS43 KBIS 302300
TAFDIK
TAF
KDIK 302333Z 3100/3124 36007KT P6SM SKC
     FM310400 14003KT P6SM SKC
     FM311400 18005KT P6SM SCT050
     FM312000 34007KT P6SM SCT070=



000
FTUS43 KBIS 302300
TAFISN
TAF
KISN 302333Z 3100/3124 03006KT P6SM SCT110
     FM310300 13004KT P6SM FEW120
     FM312000 04007KT P6SM SCT070=



000
FTUS43 KBIS 302300
TAFJMS
TAF
KJMS 302333Z 3100/3124 32006KT P6SM SKC
     FM310400 31003KT P6SM SKC
     FM310900 32003KT P6SM VCFG SKC
     FM311300 35004KT P6SM SKC
     FM311800 36004KT P6SM SCT060=



000
FTUS43 KBIS 302300
TAFMOT
TAF
KMOT 302333Z 3100/3124 35006KT P6SM FEW060
     FM310300 22003KT P6SM SKC
     FM311800 15004KT P6SM SCT050
     FM312200 05006KT P6SM SCT070=



000
FTUS43 KBIS 302300
TAFBIS
TAF
KBIS 302333Z 3100/3124 07005KT P6SM SCT070
     FM310300 VRB03KT P6SM SKC
     FM310900 VRB03KT P6SM VCFG SKC
     FM311300 07004KT P6SM SKC
     FM311800 02005KT P6SM SCT060=



000
FTUS43 KBIS 301900 AAA
TAFISN
TAF AMD
KISN 301919Z 3019/3118 06013KT P6SM SCT050
     FM310600 12007KT P6SM VCTS BKN100CB=



000
FTUS43 KBIS 301700
TAFISN
TAF
KISN 301720Z 3018/3118 06005KT P6SM SCT050
     FM310600 12007KT P6SM VCTS BKN100CB=



000
FTUS43 KBIS 301700
TAFDIK
TAF
KDIK 301720Z 3018/3118 07004KT P6SM SCT090=



000
FTUS43 KBIS 301700
TAFMOT
TAF
KMOT 301720Z 3018/3118 01005KT P6SM SCT060
     FM310600 21005KT P6SM SKC=



000
FTUS43 KBIS 301700
TAFBIS
TAF
KBIS 301720Z 3018/3118 04004KT P6SM VCFG SCT070=



000
FTUS43 KBIS 301700
TAFJMS
TAF
KJMS 301720Z 3018/3118 33007KT P6SM FEW050=



000
FTUS43 KBIS 301300 AAB
TAFDIK
TAF AMD
KDIK 301316Z 3013/3112 10005KT P6SM SCT002
      TEMPO 3013/3014 3SM BR
     FM301400 10006KT P6SM FEW060
     FM301800 02005KT P6SM SCT060
     FM310200 14004KT P6SM SCT090=



000
FTUS43 KBIS 301200 AAA
TAFDIK
TAF AMD
KDIK 301206Z 3012/3112 10005KT 3SM BR SCT002
      TEMPO 3012/3014 1/4SM FG BKN002
     FM301400 10006KT P6SM FEW060
     FM301800 02005KT P6SM SCT060
     FM310200 14004KT P6SM SCT090=



000
FTUS43 KBIS 301100
TAFMOT
TAF
KMOT 301132Z 3012/3112 25005KT P6SM VCFG SCT060
     FM301400 35005KT P6SM SCT060
     FM310200 04004KT P6SM SCT060
     FM310600 21005KT P6SM SKC=



000
FTUS43 KBIS 301100
TAFJMS
TAF
KJMS 301132Z 3012/3112 34004KT P6SM VCFG SKC
      TEMPO 3012/3014 2SM BR SCT002
     FM301800 33007KT P6SM FEW050
     FM310200 30003KT P6SM SKC=



000
FTUS43 KBIS 301100
TAFDIK
TAF
KDIK 301132Z 3012/3112 10005KT P6SM VCFG SKC
      TEMPO 3012/3014 2SM BR SCT002
     FM301400 10006KT P6SM FEW060
     FM301800 02005KT P6SM SCT060
     FM310200 14004KT P6SM SCT090=



000
FTUS43 KBIS 301100
TAFISN
TAF
KISN 301132Z 3012/3112 05005KT P6SM VCFG FEW040
      TEMPO 3012/3014 3SM BR
     FM301500 12005KT P6SM SCT050
     FM310200 13005KT P6SM BKN090
     FM310600 12007KT P6SM VCTS BKN100CB=



000
FTUS43 KBIS 301100
TAFBIS
TAF
KBIS 301132Z 3012/3112 07004KT P6SM VCFG SCT070
     FM302000 02006KT P6SM FEW060
     FM310200 04005KT P6SM SKC=



000
FTUS43 KBIS 301100 AAA
TAFISN
TAF AMD
KISN 301104Z 3011/3106 05005KT P6SM FEW040
      TEMPO 3011/3014 3SM BR
     FM301700 12005KT P6SM SCT090
     FM310200 13005KT P6SM BKN090=



000
FTUS43 KBIS 301000 AAA
TAFDIK
TAF AMD
KDIK 301041Z 3011/3106 10005KT P6SM VCFG SKC
      TEMPO 3011/3014 2SM BR SCT002
     FM301800 02005KT P6SM FEW060
     FM310200 14004KT P6SM BKN090=



000
FTUS43 KBIS 300500
TAFJMS
TAF
KJMS 300522Z 3006/3106 34004KT P6SM SKC
     FM301800 33007KT P6SM FEW050
     FM310200 30003KT P6SM SKC=



000
FTUS43 KBIS 300500
TAFDIK
TAF
KDIK 300522Z 3006/3106 10005KT P6SM SKC
     FM301800 02005KT P6SM FEW060
     FM310200 14004KT P6SM BKN090=



000
FTUS43 KBIS 300500
TAFISN
TAF
KISN 300522Z 3006/3106 05005KT P6SM FEW040
     FM301700 12005KT P6SM SCT090
     FM310200 13005KT P6SM BKN090=



000
FTUS43 KBIS 300500
TAFBIS
TAF
KBIS 300522Z 3006/3106 07004KT P6SM SCT070
     FM302000 36006KT P6SM FEW060
     FM310200 04005KT P6SM SKC=



000
FTUS43 KBIS 300500
TAFMOT
TAF
KMOT 300522Z 3006/3106 VRB03KT P6SM SKC
     FM301400 35005KT P6SM FEW040
     FM310200 04004KT P6SM SCT080=



000
FTUS43 KBIS 292300
TAFDIK
TAF
KDIK 292333Z 3000/3024 03006KT P6SM SCT070
     FM300300 08005KT P6SM SKC
     FM301800 36007KT P6SM SCT080=



000
FTUS43 KBIS 292300
TAFISN
TAF
KISN 292333Z 3000/3024 03009KT P6SM SCT060
     FM300300 VRB05KT P6SM SKC
     FM301800 36007KT P6SM SCT080=



000
FTUS43 KBIS 292300
TAFBIS
TAF
KBIS 292333Z 3000/3024 24005KT P6SM SCT070
     FM300300 VRB05KT P6SM SKC
     FM301800 36006KT P6SM SCT080=



000
FTUS43 KBIS 292300
TAFMOT
TAF
KMOT 292333Z 3000/3024 VRB05KT P6SM SCT050
     FM300400 VRB05KT P6SM SKC
     FM301900 29007KT P6SM SCT080=



000
FTUS43 KBIS 292300
TAFJMS
TAF
KJMS 292333Z 3000/3024 34007KT P6SM SCT050
     FM300200 VRB04KT P6SM SKC
     FM301900 33007KT P6SM SCT080=



    US Dept of Commerce
    National Oceanic and Atmospheric Administration
    National Weather Service
    1325 East West Highway
    Silver Spring, MD 20910
    Page Author: NWS Internet Services Team
Disclaimer
Information Quality
Credits
Glossary
Privacy Policy
Freedom of Information Act (FOIA)
About Us
Career Opportunities